Time;durP1;ratioP1;P1;durP2;ratioP2;P2;SDS_P1;SDS_P2;PMS_P1;PMS_P2;Temp;Humidity;BMP_temperature;BMP_pressure;BME280_temperature;BME280_humidity;BME280_pressure;Samples;Min_cycle;Max_cycle;Signal;HPM_P1;HPM_P2
2023/09/04 00:00:07;;;;;;;33.13;31.73;;;23.10;94.90;;;;;;5073556;28;20524;-50
2023/09/04 00:02:33;;;;;;;32.60;31.30;;;23.10;95.10;;;;;;5073820;28;20487;-49
2023/09/04 00:05:00;;;;;;;37.30;35.80;;;23.10;95.00;;;;;;5072776;28;20485;-50
2023/09/04 00:07:29;;;;;;;32.70;31.10;;;23.10;95.00;;;;;;5073700;28;20915;-47
2023/09/04 00:09:56;;;;;;;34.40;33.00;;;23.10;95.00;;;;;;5071123;28;20463;-48
2023/09/04 00:12:25;;;;;;;33.27;31.87;;;23.10;95.20;;;;;;5073285;28;20527;-47
2023/09/04 00:14:52;;;;;;;33.27;31.77;;;23.10;95.20;;;;;;5073274;28;20534;-48
2023/09/04 00:17:20;;;;;;;35.87;34.37;;;23.10;95.20;;;;;;5073687;28;20466;-47
2023/09/04 00:19:47;;;;;;;33.33;31.93;;;23.00;95.20;;;;;;5073452;28;20478;-49
2023/09/04 00:22:14;;;;;;;36.53;35.13;;;23.00;95.10;;;;;;5073244;28;20474;-48
2023/09/04 00:24:42;;;;;;;37.07;35.47;;;23.00;95.20;;;;;;5073474;28;20501;-47
2023/09/04 00:27:09;;;;;;;38.10;36.60;;;23.00;95.20;;;;;;5072333;28;20507;-47
2023/09/04 00:29:36;;;;;;;38.97;37.47;;;23.00;95.20;;;;;;5073306;28;20475;-47
2023/09/04 00:32:03;;;;;;;40.37;38.33;;;23.00;95.30;;;;;;5072590;28;20482;-47
2023/09/04 00:34:30;;;;;;;39.57;38.07;;;23.00;95.30;;;;;;5069648;28;20436;-47
2023/09/04 00:36:57;;;;;;;39.13;37.60;;;22.90;95.20;;;;;;5072796;28;20514;-48
2023/09/04 00:39:23;;;;;;;38.10;36.60;;;23.00;95.60;;;;;;5072934;28;20526;-49
2023/09/04 00:41:52;;;;;;;36.77;35.27;;;23.00;95.30;;;;;;5073060;28;20475;-47
2023/09/04 00:44:19;;;;;;;38.70;37.00;;;23.00;95.40;;;;;;5068067;28;20847;-48
2023/09/04 00:46:46;;;;;;;37.47;35.77;;;22.90;95.40;;;;;;5071766;28;20510;-48
2023/09/04 00:49:13;;;;;;;36.20;34.80;;;22.90;95.40;;;;;;5073098;28;20494;-47
2023/09/04 00:51:41;;;;;;;35.87;34.47;;;22.90;95.40;;;;;;5072336;28;20479;-47
2023/09/04 00:54:09;;;;;;;35.93;34.47;;;22.90;95.50;;;;;;5072784;28;20890;-47
2023/09/04 00:56:36;;;;;;;37.63;36.10;;;22.90;95.40;;;;;;5072533;28;21010;-49
2023/09/04 00:59:04;;;;;;;37.43;35.60;;;22.90;95.40;;;;;;5072926;28;20471;-49
2023/09/04 01:01:31;;;;;;;38.63;37.13;;;22.90;95.50;;;;;;5068633;28;20553;-47
2023/09/04 01:03:58;;;;;;;38.27;36.77;;;22.90;95.50;;;;;;5064412;28;20514;-48
2023/09/04 01:06:25;;;;;;;35.80;34.40;;;22.90;95.50;;;;;;5072319;28;20494;-48
2023/09/04 01:08:52;;;;;;;36.77;35.30;;;22.90;95.50;;;;;;5072708;28;20432;-49
2023/09/04 01:11:27;;;;;;;35.70;34.27;;;22.90;95.60;;;;;;5071969;28;20939;-50
2023/09/04 01:13:56;;;;;;;37.93;36.33;;;22.80;95.60;;;;;;5072406;28;20962;-47
2023/09/04 01:16:25;;;;;;;37.63;36.03;;;22.90;95.60;;;;;;5067185;28;20463;-48
2023/09/04 01:18:52;;;;;;;36.50;35.10;;;22.90;95.50;;;;;;5072652;28;20466;-49
2023/09/04 01:21:20;;;;;;;37.00;35.53;;;22.90;95.50;;;;;;5063647;28;20486;-48
2023/09/04 01:23:47;;;;;;;36.70;35.30;;;22.80;95.50;;;;;;5072159;28;20503;-47
2023/09/04 01:26:16;;;;;;;34.70;33.40;;;22.90;95.60;;;;;;5071258;28;20559;-47
2023/09/04 01:28:55;;;;;;;34.77;33.47;;;22.80;95.60;;;;;;5071949;28;20471;-47
2023/09/04 01:31:27;;;;;;;38.30;36.50;;;22.80;95.70;;;;;;5064847;28;20455;-47
2023/09/04 01:33:58;;;;;;;35.23;33.40;;;22.80;95.60;;;;;;5066662;28;20975;-49
2023/09/04 01:36:31;;;;;;;35.43;34.03;;;22.80;95.60;;;;;;5068819;28;20498;-51
2023/09/04 01:38:58;;;;;;;38.93;37.43;;;22.80;95.60;;;;;;5069274;28;20943;-49
2023/09/04 01:41:25;;;;;;;34.97;33.57;;;22.80;95.60;;;;;;5067792;28;20868;-47
2023/09/04 01:43:53;;;;;;;37.40;35.90;;;22.80;95.70;;;;;;5067617;28;20890;-47
2023/09/04 01:46:21;;;;;;;33.83;32.43;;;22.80;95.70;;;;;;5064928;28;20478;-48
2023/09/04 01:48:48;;;;;;;36.43;35.03;;;22.80;95.60;;;;;;5071795;28;20954;-50
2023/09/04 01:51:15;;;;;;;34.70;33.30;;;22.70;95.60;;;;;;5071862;28;20530;-49
2023/09/04 01:53:44;;;;;;;34.93;33.63;;;22.80;95.60;;;;;;5071775;28;21001;-47
2023/09/04 01:56:11;;;;;;;34.80;33.43;;;22.80;95.70;;;;;;5064094;28;20910;-51
2023/09/04 01:58:38;;;;;;;33.57;32.10;;;22.80;95.60;;;;;;5066850;28;20866;-50
2023/09/04 02:01:05;;;;;;;34.30;32.80;;;22.80;95.60;;;;;;5063436;28;20963;-47
2023/09/04 02:03:32;;;;;;;33.97;32.67;;;22.80;95.70;;;;;;5071193;28;20514;-47
2023/09/04 02:05:59;;;;;;;35.37;33.97;;;22.70;95.60;;;;;;5071352;28;20478;-48
2023/09/04 02:08:25;;;;;;;36.37;34.87;;;22.80;95.70;;;;;;5064907;28;20454;-49
2023/09/04 02:10:55;;;;;;;33.57;32.27;;;22.80;95.70;;;;;;5070999;28;20973;-49
2023/09/04 02:13:22;;;;;;;34.20;32.80;;;22.70;95.60;;;;;;5063163;28;20860;-51
2023/09/04 02:15:49;;;;;;;34.63;33.17;;;22.70;95.60;;;;;;5071343;28;20859;-51
2023/09/04 02:18:16;;;;;;;33.57;32.17;;;22.70;95.60;;;;;;5063088;28;20471;-48
2023/09/04 02:20:43;;;;;;;34.20;32.90;;;22.70;95.60;;;;;;5070786;28;20475;-48
2023/09/04 02:23:10;;;;;;;31.43;30.13;;;22.70;95.60;;;;;;5070414;28;20517;-49
2023/09/04 02:25:37;;;;;;;34.57;33.17;;;22.70;95.60;;;;;;5070838;28;20998;-47
2023/09/04 02:28:06;;;;;;;34.17;32.87;;;22.70;95.60;;;;;;5069824;28;20533;-48
2023/09/04 02:30:32;;;;;;;33.20;31.73;;;22.70;95.70;;;;;;5071389;28;20475;-48
2023/09/04 02:33:00;;;;;;;32.97;31.67;;;22.70;95.70;;;;;;5069568;28;20486;-48
2023/09/04 02:35:26;;;;;;;34.43;33.13;;;22.70;95.70;;;;;;5064222;28;20772;-48
2023/09/04 02:37:53;;;;;;;34.67;33.27;;;22.70;95.70;;;;;;5068416;28;20911;-48
2023/09/04 02:40:20;;;;;;;35.00;33.57;;;22.70;95.60;;;;;;5070893;28;20502;-47
2023/09/04 02:42:47;;;;;;;31.90;30.50;;;22.70;95.60;;;;;;5070949;28;20901;-48
2023/09/04 02:45:15;;;;;;;33.17;31.87;;;22.60;95.60;;;;;;5070873;28;20750;-47
2023/09/04 02:47:42;;;;;;;35.63;34.23;;;22.70;95.70;;;;;;5064532;28;20508;-47
2023/09/04 02:50:10;;;;;;;37.20;35.80;;;22.60;95.70;;;;;;5066024;28;20490;-47
2023/09/04 02:52:37;;;;;;;34.37;32.83;;;22.60;95.70;;;;;;5070200;28;20453;-47
2023/09/04 02:55:06;;;;;;;34.20;32.80;;;22.60;95.60;;;;;;5070487;28;20485;-48
2023/09/04 02:57:33;;;;;;;32.77;31.37;;;22.60;95.60;;;;;;5070411;28;20467;-47
2023/09/04 03:00:01;;;;;;;34.90;33.50;;;22.60;95.60;;;;;;5071018;28;20875;-48
2023/09/04 03:02:29;;;;;;;36.60;34.93;;;22.60;95.60;;;;;;5063520;28;20450;-47
2023/09/04 03:04:57;;;;;;;38.90;37.30;;;22.60;95.80;;;;;;5070962;28;20547;-47
2023/09/04 03:07:26;;;;;;;35.40;34.00;;;22.60;95.90;;;;;;5062345;28;20474;-47
2023/09/04 03:09:56;;;;;;;37.33;35.90;;;22.60;95.80;;;;;;5074577;28;20868;-47
2023/09/04 03:12:24;;;;;;;34.83;33.13;;;22.60;95.80;;;;;;5066935;28;20841;-47
2023/09/04 03:14:56;;;;;;;34.40;33.00;;;22.60;95.80;;;;;;5074831;28;20813;-48
2023/09/04 03:17:23;;;;;;;36.77;35.27;;;22.60;95.80;;;;;;5066862;28;20870;-47
2023/09/04 03:19:53;;;;;;;36.27;34.80;;;22.60;95.80;;;;;;5074952;28;20467;-49
2023/09/04 03:22:20;;;;;;;38.23;36.73;;;22.60;95.80;;;;;;5073697;28;21009;-49
2023/09/04 03:24:47;;;;;;;35.43;33.70;;;22.60;95.80;;;;;;5070002;28;20869;-47
2023/09/04 03:27:14;;;;;;;36.90;35.20;;;22.60;95.80;;;;;;5073933;28;20474;-47
2023/09/04 03:29:42;;;;;;;35.90;34.40;;;22.50;95.80;;;;;;5074636;28;20467;-47
2023/09/04 03:32:09;;;;;;;35.60;34.20;;;22.60;95.80;;;;;;5073322;28;20469;-49
2023/09/04 03:34:36;;;;;;;36.10;34.70;;;22.60;95.90;;;;;;5074209;28;20977;-50
2023/09/04 03:37:05;;;;;;;36.33;34.93;;;22.60;95.80;;;;;;5074348;28;20487;-47
2023/09/04 03:39:36;;;;;;;35.60;34.20;;;22.60;95.80;;;;;;5074522;28;20489;-47
2023/09/04 03:42:03;;;;;;;34.73;33.43;;;22.50;95.80;;;;;;5069180;28;20942;-47
2023/09/04 03:44:30;;;;;;;35.70;34.30;;;22.50;95.80;;;;;;5074292;28;20506;-47
2023/09/04 03:46:57;;;;;;;38.53;37.03;;;22.50;95.80;;;;;;5073320;28;20495;-47
2023/09/04 03:49:24;;;;;;;35.37;33.97;;;22.50;95.80;;;;;;5065570;28;20482;-48
2023/09/04 03:51:51;;;;;;;39.37;37.80;;;22.50;95.90;;;;;;5074177;28;20966;-47
2023/09/04 03:54:19;;;;;;;32.40;31.07;;;22.50;95.90;;;;;;5074131;28;20934;-47
2023/09/04 03:56:46;;;;;;;36.67;35.07;;;22.50;95.90;;;;;;5066319;28;20463;-48
2023/09/04 03:59:13;;;;;;;34.70;33.30;;;22.50;95.80;;;;;;5073539;28;20483;-46
2023/09/04 04:01:43;;;;;;;40.20;38.70;;;22.50;95.90;;;;;;5066764;28;21000;-47
2023/09/04 04:04:11;;;;;;;42.00;40.30;;;22.50;95.80;;;;;;5073605;28;20503;-48
2023/09/04 04:06:38;;;;;;;42.60;40.90;;;22.50;95.80;;;;;;5066419;28;20471;-48
2023/09/04 04:09:06;;;;;;;41.57;39.97;;;22.50;95.80;;;;;;5073814;28;20467;-47
2023/09/04 04:11:35;;;;;;;41.30;39.60;;;22.50;95.80;;;;;;5066542;28;20451;-48
2023/09/04 04:14:02;;;;;;;39.90;38.37;;;22.50;95.80;;;;;;5072551;28;20447;-47
2023/09/04 04:16:32;;;;;;;41.10;39.50;;;22.50;95.70;;;;;;5072981;28;21009;-47
2023/09/04 04:18:59;;;;;;;42.93;41.33;;;22.50;95.80;;;;;;5070024;28;20467;-48
2023/09/04 04:21:26;;;;;;;45.47;43.77;;;22.40;95.70;;;;;;5058159;28;20494;-49
2023/09/04 04:23:53;;;;;;;44.93;43.23;;;22.50;95.70;;;;;;5073640;28;20575;-47
2023/09/04 04:26:19;;;;;;;43.23;41.57;;;22.40;95.60;;;;;;5065788;28;20552;-47
2023/09/04 04:28:48;;;;;;;41.30;39.70;;;22.40;95.60;;;;;;5073818;28;20467;-50
2023/09/04 04:31:15;;;;;;;40.87;39.17;;;22.40;95.60;;;;;;5068617;28;20480;-48
2023/09/04 04:33:41;;;;;;;40.40;38.90;;;22.40;95.60;;;;;;5073619;28;20435;-51
2023/09/04 04:36:09;;;;;;;42.90;41.03;;;22.40;95.60;;;;;;5072542;28;20498;-49
2023/09/04 04:38:36;;;;;;;43.10;41.40;;;22.40;95.60;;;;;;5067239;28;20475;-50
2023/09/04 04:41:02;;;;;;;40.70;39.20;;;22.40;95.60;;;;;;5069004;28;20475;-49
2023/09/04 04:43:30;;;;;;;38.57;37.07;;;22.40;95.60;;;;;;5073436;28;20478;-51
2023/09/04 04:45:58;;;;;;;40.83;39.20;;;22.40;95.60;;;;;;5072789;28;20459;-50
2023/09/04 04:48:25;;;;;;;44.50;42.80;;;22.40;95.60;;;;;;5073090;28;20475;-50
2023/09/04 04:50:52;;;;;;;44.33;42.63;;;22.40;95.70;;;;;;5069024;28;20482;-47
2023/09/04 04:53:19;;;;;;;44.47;42.73;;;22.30;95.60;;;;;;5072888;28;20578;-50
2023/09/04 04:55:46;;;;;;;41.23;39.63;;;22.40;95.70;;;;;;5068685;28;20978;-50
2023/09/04 04:58:12;;;;;;;41.60;40.00;;;22.40;95.60;;;;;;5071069;28;20490;-48
2023/09/04 05:00:39;;;;;;;43.63;42.03;;;22.40;95.60;;;;;;5068433;28;20480;-52
2023/09/04 05:03:08;;;;;;;40.80;39.20;;;22.30;95.60;;;;;;5071086;28;20822;-49
2023/09/04 05:05:35;;;;;;;41.93;40.23;;;22.40;95.60;;;;;;5068573;28;20482;-48
2023/09/04 05:08:02;;;;;;;43.57;41.97;;;22.30;95.60;;;;;;5069059;28;20498;-49
2023/09/04 05:10:29;;;;;;;41.80;40.10;;;22.40;95.60;;;;;;5069486;28;20793;-48
2023/09/04 05:12:56;;;;;;;41.50;39.80;;;22.30;95.60;;;;;;5068550;28;20441;-50
2023/09/04 05:15:23;;;;;;;46.20;44.50;;;22.30;95.60;;;;;;5071761;28;20475;-49
2023/09/04 05:17:50;;;;;;;48.30;46.40;;;22.30;95.60;;;;;;5069744;28;20550;-48
2023/09/04 05:20:18;;;;;;;43.80;42.10;;;22.30;95.60;;;;;;5070025;28;20486;-49
2023/09/04 05:22:45;;;;;;;43.27;41.57;;;22.30;95.60;;;;;;5068708;28;20501;-49
2023/09/04 05:25:12;;;;;;;41.13;39.33;;;22.30;95.60;;;;;;5071256;28;20471;-52
2023/09/04 05:27:39;;;;;;;42.30;40.50;;;22.40;95.70;;;;;;5065672;28;20467;-50
2023/09/04 05:30:07;;;;;;;40.37;38.77;;;22.40;95.70;;;;;;5072168;28;20455;-50
2023/09/04 05:32:34;;;;;;;44.47;42.67;;;22.40;95.70;;;;;;5067210;28;20488;-49
2023/09/04 05:35:01;;;;;;;42.00;40.30;;;22.40;95.70;;;;;;5071312;28;20962;-48
2023/09/04 05:37:29;;;;;;;43.60;41.70;;;22.40;95.70;;;;;;5071520;28;20532;-51
2023/09/04 05:39:56;;;;;;;39.17;37.67;;;22.40;95.70;;;;;;5072252;28;20497;-53
2023/09/04 05:42:23;;;;;;;45.13;43.33;;;22.40;95.70;;;;;;5072180;28;20440;-49
2023/09/04 05:44:50;;;;;;;44.07;42.33;;;22.40;95.70;;;;;;5071813;28;20551;-52
2023/09/04 05:47:17;;;;;;;42.20;40.50;;;22.40;95.70;;;;;;5067770;28;20498;-51
2023/09/04 05:49:44;;;;;;;41.77;40.17;;;22.40;95.70;;;;;;5071063;28;20483;-49
2023/09/04 05:52:11;;;;;;;41.50;39.80;;;22.40;95.70;;;;;;5071004;28;20479;-52
2023/09/04 05:54:39;;;;;;;44.30;42.37;;;22.40;95.70;;;;;;5072019;28;20455;-50
2023/09/04 05:57:06;;;;;;;37.90;36.40;;;22.40;95.70;;;;;;5071475;28;20496;-52
2023/09/04 05:59:33;;;;;;;39.03;37.40;;;22.40;95.60;;;;;;5071935;28;20440;-51
2023/09/04 06:02:00;;;;;;;49.33;47.53;;;22.40;95.60;;;;;;5067961;28;20502;-52
2023/09/04 06:04:26;;;;;;;50.33;48.50;;;22.50;96.40;;;;;;5070600;28;20580;-52
2023/09/04 06:06:53;;;;;;;48.70;46.87;;;22.50;96.00;;;;;;5071252;28;20910;-51
2023/09/04 06:09:21;;;;;;;50.40;48.50;;;22.60;96.30;;;;;;5070503;28;20462;-50
2023/09/04 06:11:49;;;;;;;52.67;50.83;;;22.70;96.80;;;;;;5065716;28;20440;-50
2023/09/04 06:14:16;;;;;;;51.80;49.60;;;22.70;96.10;;;;;;5071548;28;20475;-50
2023/09/04 06:16:42;;;;;;;51.40;49.60;;;22.80;96.10;;;;;;5071051;28;20494;-54
2023/09/04 06:19:09;;;;;;;55.13;52.83;;;22.90;96.00;;;;;;5068410;28;20490;-50
2023/09/04 06:21:36;;;;;;;52.40;50.50;;;23.10;96.00;;;;;;5071670;28;20478;-49
2023/09/04 06:24:03;;;;;;;51.73;49.83;;;23.20;96.00;;;;;;5072072;28;20482;-51
2023/09/04 06:26:30;;;;;;;52.43;50.53;;;23.40;95.80;;;;;;5065239;28;20564;-54
2023/09/04 06:28:59;;;;;;;54.27;52.17;;;23.50;95.60;;;;;;5068645;28;20486;-48
2023/09/04 06:31:26;;;;;;;55.27;52.87;;;23.70;95.90;;;;;;5071352;28;20447;-51
2023/09/04 06:33:53;;;;;;;52.10;50.30;;;23.80;95.20;;;;;;5066815;28;20865;-49
2023/09/04 06:36:20;;;;;;;54.43;52.40;;;23.90;94.90;;;;;;5070660;28;20471;-54
2023/09/04 06:38:48;;;;;;;55.13;52.93;;;24.00;94.70;;;;;;5069430;28;20954;-56
2023/09/04 06:41:16;;;;;;;53.00;51.00;;;24.20;94.50;;;;;;5067831;28;20823;-54
2023/09/04 06:43:43;;;;;;;54.40;52.40;;;24.20;94.10;;;;;;5071293;28;20463;-52
2023/09/04 06:46:11;;;;;;;52.00;50.00;;;24.30;93.80;;;;;;5068144;28;20506;-52
2023/09/04 06:48:38;;;;;;;52.10;50.10;;;24.40;93.60;;;;;;5066895;28;20483;-54
2023/09/04 06:51:05;;;;;;;53.00;51.00;;;24.50;93.20;;;;;;5071304;28;21053;-52
2023/09/04 06:53:32;;;;;;;54.50;52.60;;;24.60;93.10;;;;;;5056939;28;20485;-54
2023/09/04 06:55:59;;;;;;;51.77;49.80;;;24.60;92.80;;;;;;5065028;28;20512;-58
2023/09/04 06:58:26;;;;;;;52.77;50.57;;;24.70;92.70;;;;;;5070422;28;22995;-60
2023/09/04 07:00:53;;;;;;;53.70;51.90;;;24.70;92.50;;;;;;5069647;28;20522;-59
2023/09/04 07:03:22;;;;;;;51.40;49.60;;;24.90;92.30;;;;;;5066750;28;21015;-54
2023/09/04 07:05:49;;;;;;;53.50;51.40;;;24.90;92.20;;;;;;5070453;28;20513;-52
2023/09/04 07:08:16;;;;;;;53.30;51.40;;;24.90;91.90;;;;;;5070313;28;21041;-51
2023/09/04 07:10:43;;;;;;;51.73;49.73;;;25.00;92.00;;;;;;5070727;28;20478;-52
2023/09/04 07:13:10;;;;;;;53.70;51.80;;;24.90;91.60;;;;;;5070599;28;20474;-52
2023/09/04 07:15:37;;;;;;;52.67;50.87;;;25.00;92.10;;;;;;5069961;28;20482;-51
2023/09/04 07:18:04;;;;;;;51.10;48.97;;;25.00;92.20;;;;;;5064627;28;20500;-55
2023/09/04 07:20:32;;;;;;;54.70;52.60;;;25.00;92.00;;;;;;5070664;28;20467;-52
2023/09/04 07:22:59;;;;;;;52.97;51.07;;;25.00;92.00;;;;;;5070593;28;20453;-52
2023/09/04 07:25:26;;;;;;;53.03;51.13;;;25.10;91.30;;;;;;5070316;28;20518;-51
2023/09/04 07:27:53;;;;;;;54.27;52.27;;;25.10;91.10;;;;;;5065051;28;20646;-51
2023/09/04 07:30:20;;;;;;;53.77;51.87;;;25.10;91.10;;;;;;5069481;28;20534;-53
2023/09/04 07:32:47;;;;;;;53.00;50.90;;;25.10;91.00;;;;;;5066529;28;20482;-51
2023/09/04 07:35:14;;;;;;;53.20;51.33;;;25.20;90.90;;;;;;5069564;28;20981;-52
2023/09/04 07:37:42;;;;;;;57.27;55.10;;;25.20;90.70;;;;;;5070375;28;20494;-51
2023/09/04 07:40:10;;;;;;;52.83;50.30;;;25.20;90.50;;;;;;5066134;28;20486;-52
2023/09/04 07:42:37;;;;;;;54.97;52.97;;;25.20;90.80;;;;;;5070443;28;20475;-54
2023/09/04 07:45:05;;;;;;;52.17;50.37;;;25.20;90.90;;;;;;5069857;28;20562;-52
2023/09/04 07:47:31;;;;;;;52.77;50.67;;;25.20;92.00;;;;;;5070172;28;20503;-52
2023/09/04 07:49:58;;;;;;;54.20;52.20;;;25.30;91.40;;;;;;5070248;28;20526;-54
2023/09/04 07:52:25;;;;;;;54.97;52.80;;;25.30;91.30;;;;;;5070371;28;20475;-55
2023/09/04 07:54:54;;;;;;;55.20;53.20;;;25.30;91.40;;;;;;5066661;28;20479;-52
2023/09/04 07:57:21;;;;;;;54.30;52.20;;;25.30;90.80;;;;;;5073412;28;21037;-52
2023/09/04 07:59:48;;;;;;;56.27;54.20;;;25.40;91.40;;;;;;5073887;28;20479;-53
2023/09/04 08:02:16;;;;;;;53.57;51.67;;;25.40;90.80;;;;;;5073882;28;20526;-52
2023/09/04 08:04:42;;;;;;;54.23;52.27;;;25.40;90.20;;;;;;5068050;28;20678;-52
2023/09/04 08:07:09;;;;;;;52.07;50.07;;;25.50;90.00;;;;;;5062182;28;20494;-53
2023/09/04 08:09:36;;;;;;;52.03;50.20;;;25.50;90.10;;;;;;5069811;28;20482;-53
2023/09/04 08:12:05;;;;;;;53.07;51.10;;;25.50;90.20;;;;;;5073774;28;20482;-52
2023/09/04 08:14:36;;;;;;;51.50;49.50;;;25.50;90.10;;;;;;5071237;28;20475;-49
2023/09/04 08:17:03;;;;;;;51.23;49.43;;;25.50;90.10;;;;;;5071099;28;20528;-50
2023/09/04 08:19:30;;;;;;;53.67;51.73;;;25.50;90.10;;;;;;5071453;28;20482;-52
2023/09/04 08:21:58;;;;;;;56.17;54.10;;;25.50;90.50;;;;;;5073538;28;20889;-51
2023/09/04 08:24:25;;;;;;;53.70;51.70;;;25.50;90.50;;;;;;5073418;28;20447;-55
2023/09/04 08:26:52;;;;;;;53.10;51.10;;;25.60;90.30;;;;;;5072738;28;20515;-57
2023/09/04 08:29:21;;;;;;;53.00;51.17;;;25.70;89.70;;;;;;5073288;28;20538;-55
2023/09/04 08:31:47;;;;;;;55.23;53.00;;;25.70;89.50;;;;;;5072497;28;20452;-55
2023/09/04 08:34:14;;;;;;;56.30;54.27;;;25.70;89.60;;;;;;5068074;28;20531;-52
2023/09/04 08:36:42;;;;;;;54.87;52.97;;;25.70;89.30;;;;;;5073146;28;20494;-52
2023/09/04 08:39:09;;;;;;;57.20;55.20;;;25.70;89.10;;;;;;5073256;28;20526;-51
2023/09/04 08:41:38;;;;;;;55.63;53.73;;;25.80;88.60;;;;;;5068861;28;20478;-52
2023/09/04 08:44:05;;;;;;;50.17;48.45;;;25.80;88.10;;;;;;5072890;28;20810;-58
2023/09/04 08:46:34;;;;;;;54.40;52.50;;;25.80;87.70;;;;;;5068391;28;20700;-48
2023/09/04 08:49:03;;;;;;;58.80;56.67;;;25.90;87.80;;;;;;5065129;28;20861;-52
2023/09/04 08:51:34;;;;;;;55.23;53.23;;;25.80;87.30;;;;;;5064658;28;20454;-53
2023/09/04 08:54:02;;;;;;;55.60;53.60;;;25.80;88.80;;;;;;5072150;28;20452;-52
2023/09/04 08:56:31;;;;;;;54.67;52.77;;;25.80;88.10;;;;;;5071513;28;20854;-49
2023/09/04 08:59:05;;;;;;;54.23;52.33;;;25.80;88.10;;;;;;5073798;28;20867;-57
2023/09/04 09:01:36;;;;;;;56.93;55.03;;;25.80;88.10;;;;;;5073567;28;20455;-54
2023/09/04 09:04:04;;;;;;;53.07;51.17;;;25.90;87.70;;;;;;5077310;28;20451;-58
2023/09/04 09:06:34;;;;;;;54.30;52.20;;;25.80;88.00;;;;;;5071916;28;20655;-54
2023/09/04 09:09:10;;;;;;;52.87;50.97;;;25.90;87.30;;;;;;5078867;28;20946;-51
2023/09/04 09:11:39;;;;;;;57.03;55.03;;;25.90;87.10;;;;;;5072064;28;20450;-50
2023/09/04 09:14:07;;;;;;;56.00;53.37;;;25.80;87.10;;;;;;5077459;28;20910;-48
2023/09/04 09:16:41;;;;;;;53.47;51.40;;;25.80;87.10;;;;;;5071386;28;20821;-54
2023/09/04 09:19:10;;;;;;;54.87;52.90;;;25.80;87.00;;;;;;5081041;28;20448;-50
2023/09/04 09:21:43;;;;;;;54.87;52.77;;;25.90;87.00;;;;;;5074775;28;20817;-51
2023/09/04 09:24:15;;;;;;;53.67;51.67;;;25.90;86.40;;;;;;5066045;28;20525;-54
2023/09/04 09:26:45;;;;;;;53.13;51.07;;;26.00;86.20;;;;;;5056827;28;20483;-53
2023/09/04 09:29:13;;;;;;;55.47;53.47;;;26.00;86.00;;;;;;5072552;28;20796;-49
2023/09/04 09:31:45;;;;;;;54.20;52.30;;;26.00;85.80;;;;;;5065983;28;20837;-51
2023/09/04 09:34:12;;;;;;;58.27;56.07;;;26.00;85.70;;;;;;5060479;28;20523;-51
2023/09/04 09:36:40;;;;;;;56.33;54.13;;;26.10;85.60;;;;;;5068550;28;20528;-50
2023/09/04 09:39:07;;;;;;;55.03;52.97;;;26.10;85.40;;;;;;5068357;28;20973;-52
2023/09/04 09:41:35;;;;;;;55.40;53.40;;;26.10;85.20;;;;;;5071646;28;20471;-49
2023/09/04 09:44:03;;;;;;;55.93;53.93;;;26.10;85.40;;;;;;5071999;28;20946;-52
2023/09/04 09:46:32;;;;;;;59.03;56.93;;;26.10;85.10;;;;;;5072014;28;20479;-51
2023/09/04 09:49:08;;;;;;;56.27;54.27;;;26.10;85.00;;;;;;5071406;28;20482;-49
2023/09/04 09:51:40;;;;;;;52.77;50.87;;;26.10;84.80;;;;;;5070992;28;20458;-48
2023/09/04 09:54:14;;;;;;;56.90;54.70;;;26.10;85.10;;;;;;5068520;28;20438;-52
2023/09/04 09:56:42;;;;;;;53.83;51.93;;;26.00;84.70;;;;;;5061406;28;21005;-54
2023/09/04 09:59:12;;;;;;;55.70;53.53;;;26.00;84.90;;;;;;5072109;28;20451;-51
2023/09/04 10:01:47;;;;;;;55.73;53.73;;;25.90;84.70;;;;;;5069240;28;20951;-53
2023/09/04 10:04:16;;;;;;;54.90;52.70;;;25.90;85.90;;;;;;5070056;28;20490;-51
2023/09/04 10:06:44;;;;;;;55.73;53.73;;;26.00;85.20;;;;;;5069957;28;20548;-52
2023/09/04 10:09:11;;;;;;;58.23;56.13;;;26.00;84.80;;;;;;5071849;28;20488;-52
2023/09/04 10:11:44;;;;;;;54.37;52.37;;;26.10;85.10;;;;;;5071420;28;20935;-54
2023/09/04 10:14:15;;;;;;;53.20;51.30;;;26.10;84.60;;;;;;5071852;28;20471;-58
2023/09/04 10:16:47;;;;;;;54.67;52.73;;;26.10;84.40;;;;;;5063560;28;20468;-55
2023/09/04 10:19:19;;;;;;;61.60;59.30;;;26.10;84.20;;;;;;5071192;28;20494;-58
2023/09/04 10:21:53;;;;;;;55.77;53.67;;;26.10;84.40;;;;;;5065964;28;20453;-53
2023/09/04 10:24:30;;;;;;;56.23;54.07;;;26.00;85.30;;;;;;5073501;28;20451;-55
2023/09/04 10:27:02;;;;;;;54.10;52.10;;;25.90;85.10;;;;;;5064199;28;20970;-56
2023/09/04 10:29:35;;;;;;;55.13;53.03;;;26.00;84.70;;;;;;5062158;28;20958;-55
2023/09/04 10:32:03;;;;;;;56.30;54.30;;;26.00;84.70;;;;;;5069330;28;20815;-57
2023/09/04 10:34:33;;;;;;;55.93;53.93;;;26.00;84.60;;;;;;5070939;28;20447;-59
2023/09/04 10:37:13;;;;;;;55.10;53.20;;;26.10;84.30;;;;;;5066852;28;20495;-52
2023/09/04 10:39:41;;;;;;;53.60;51.60;;;26.10;84.30;;;;;;5067721;28;20451;-51
2023/09/04 10:42:10;;;;;;;55.80;53.70;;;26.00;84.30;;;;;;5066853;28;20887;-55
2023/09/04 10:44:47;;;;;;;54.10;52.00;;;26.10;84.70;;;;;;5070665;28;20465;-53
2023/09/04 10:47:14;;;;;;;53.30;51.30;;;26.10;84.60;;;;;;5069710;28;20486;-56
2023/09/04 10:49:46;;;;;;;54.70;52.70;;;26.10;84.00;;;;;;5059305;28;21121;-54
2023/09/04 10:52:17;;;;;;;52.53;50.73;;;26.10;84.20;;;;;;5070830;28;20447;-54
2023/09/04 10:54:49;;;;;;;55.47;53.47;;;26.20;84.20;;;;;;5058927;28;21012;-52
2023/09/04 10:57:22;;;;;;;53.83;51.93;;;26.20;84.10;;;;;;5064828;28;20503;-56
2023/09/04 11:00:06;;;;;;;53.20;51.20;;;26.20;83.90;;;;;;5070573;28;20451;-54
2023/09/04 11:02:35;;;;;;;55.30;53.30;;;26.10;83.80;;;;;;5071002;28;20888;-54
2023/09/04 11:05:08;;;;;;;55.07;52.70;;;26.10;83.80;;;;;;5071004;28;20497;-51
2023/09/04 11:07:37;;;;;;;52.60;50.60;;;26.10;83.80;;;;;;5070610;28;20479;-51
2023/09/04 11:10:23;;;;;;;55.57;53.57;;;26.20;83.80;;;;;;5060422;28;20505;-60
2023/09/04 11:12:56;;;;;;;53.73;51.73;;;26.10;83.70;;;;;;5063940;28;20985;-54
2023/09/04 11:15:26;;;;;;;55.43;53.40;;;26.20;83.40;;;;;;5070558;28;20500;-55
2023/09/04 11:17:56;;;;;;;54.03;52.03;;;26.20;83.50;;;;;;5055199;28;20548;-51
2023/09/04 11:20:43;;;;;;;57.97;55.97;;;26.20;83.30;;;;;;5067151;28;20935;-52
2023/09/04 11:23:11;;;;;;;56.00;54.00;;;26.20;83.10;;;;;;5070735;28;20451;-52
2023/09/04 11:25:39;;;;;;;56.83;54.73;;;26.30;83.10;;;;;;5069535;28;20482;-53
2023/09/04 11:28:07;;;;;;;56.10;54.10;;;26.20;82.90;;;;;;5070427;28;20483;-61
2023/09/04 11:30:37;;;;;;;51.43;49.23;;;26.30;82.80;;;;;;5073664;28;20850;-57
2023/09/04 11:33:05;;;;;;;52.83;50.63;;;26.30;82.90;;;;;;5069294;28;20475;-55
2023/09/04 11:35:37;;;;;;;53.07;50.77;;;26.20;83.00;;;;;;5074054;28;20875;-59
2023/09/04 11:38:24;;;;;;;51.90;49.70;;;26.20;83.10;;;;;;5069876;28;20501;-57
2023/09/04 11:40:51;;;;;;;51.30;49.20;;;26.20;82.80;;;;;;5068726;28;20455;-50
2023/09/04 11:43:19;;;;;;;55.10;52.80;;;26.10;83.00;;;;;;5065762;28;20469;-53
2023/09/04 11:45:46;;;;;;;58.03;55.33;;;26.10;82.80;;;;;;5073930;28;20584;-52
2023/09/04 11:48:13;;;;;;;53.90;51.53;;;25.90;83.10;;;;;;5067589;28;20525;-54
2023/09/04 11:50:43;;;;;;;52.97;50.77;;;25.80;83.20;;;;;;5074034;28;20804;-52
2023/09/04 11:53:14;;;;;;;53.13;51.00;;;25.70;83.40;;;;;;5073875;28;20486;-51
2023/09/04 11:55:47;;;;;;;52.27;50.07;;;25.60;83.90;;;;;;5072814;28;20479;-51
2023/09/04 11:58:17;;;;;;;53.60;51.30;;;25.50;84.10;;;;;;5073872;28;20478;-50
2023/09/04 12:00:49;;;;;;;54.20;52.00;;;25.40;84.30;;;;;;5066335;28;20468;-51
2023/09/04 12:03:17;;;;;;;52.33;50.23;;;25.30;84.50;;;;;;5072112;28;20455;-51
2023/09/04 12:05:51;;;;;;;51.20;49.17;;;25.20;84.60;;;;;;5065316;28;20463;-51
2023/09/04 12:08:19;;;;;;;51.63;49.53;;;25.10;84.80;;;;;;5071662;28;20470;-53
2023/09/04 12:10:47;;;;;;;54.27;51.93;;;25.10;85.00;;;;;;5067090;28;20501;-57
2023/09/04 12:13:18;;;;;;;51.87;49.67;;;25.00;86.60;;;;;;5073788;28;20452;-56
2023/09/04 12:15:50;;;;;;;51.97;49.83;;;25.00;86.00;;;;;;5065405;28;20458;-57
2023/09/04 12:18:18;;;;;;;55.23;52.93;;;25.00;86.00;;;;;;5073516;28;20475;-55
2023/09/04 12:20:56;;;;;;;50.23;48.03;;;25.00;86.00;;;;;;5066833;28;20471;-53
2023/09/04 12:23:45;;;;;;;51.10;49.00;;;24.90;86.20;;;;;;5065765;28;20440;-53
2023/09/04 12:26:16;;;;;;;50.80;48.70;;;24.80;86.30;;;;;;5049904;28;20491;-53
2023/09/04 12:28:46;;;;;;;55.73;53.00;;;24.70;86.40;;;;;;5072703;28;20947;-52
2023/09/04 12:31:15;;;;;;;51.40;49.20;;;24.70;86.60;;;;;;5068986;28;20493;-55
2023/09/04 12:33:46;;;;;;;48.80;46.80;;;24.70;86.70;;;;;;5073392;28;20455;-57